createdAt,value
2022-10-05T00:00:53.791Z,360
2022-10-05T00:02:55.297Z,360
2022-10-05T00:04:57.163Z,360
2022-10-05T00:06:58.317Z,360
2022-10-05T00:09:00.213Z,360
2022-10-05T00:11:01.697Z,360
2022-10-05T00:15:05.065Z,360
2022-10-05T00:17:06.020Z,360
2022-10-05T00:19:07.509Z,360
2022-10-05T00:21:08.806Z,360
2022-10-05T00:25:11.666Z,360
2022-10-05T00:27:13.493Z,360
2022-10-05T00:29:15.332Z,360
2022-10-05T00:31:16.763Z,360
2022-10-05T00:33:18.316Z,360
2022-10-05T00:35:19.919Z,360
2022-10-05T00:37:21.801Z,360
2022-10-05T00:39:23.729Z,360
2022-10-05T00:41:25.051Z,360
2022-10-05T00:43:26.808Z,360
2022-10-05T00:45:28.769Z,360
2022-10-05T00:47:30.576Z,360
2022-10-05T00:49:31.732Z,360
2022-10-05T00:51:33.161Z,360
2022-10-05T00:53:34.783Z,360
2022-10-05T00:57:38.168Z,360
2022-10-05T00:59:39.527Z,360
2022-10-05T01:03:42.431Z,360
2022-10-05T01:05:44.142Z,360
2022-10-05T01:07:45.548Z,360
2022-10-05T01:09:47.434Z,360
2022-10-05T01:13:51.149Z,360
2022-10-05T01:15:52.341Z,360
2022-10-05T01:17:53.959Z,360
2022-10-05T01:19:55.431Z,360
2022-10-05T01:21:56.416Z,360
2022-10-05T01:23:57.711Z,360
2022-10-05T01:25:59.097Z,360
2022-10-05T01:28:00.633Z,360
2022-10-05T01:30:01.777Z,360
2022-10-05T01:32:03.276Z,360
2022-10-05T01:34:07.882Z,360
2022-10-05T01:36:06.139Z,360
2022-10-05T01:40:09.221Z,360
2022-10-05T01:42:10.725Z,360
2022-10-05T01:44:12.242Z,360
2022-10-05T01:46:13.935Z,360
2022-10-05T01:50:17.514Z,360
2022-10-05T01:52:19.035Z,360
2022-10-05T01:54:20.513Z,360
2022-10-05T01:56:21.753Z,360
2022-10-05T02:00:24.831Z,360
2022-10-05T02:02:26.564Z,360
2022-10-05T02:04:56.808Z,360
2022-10-05T02:06:29.451Z,360
2022-10-05T02:12:34.068Z,360
2022-10-05T02:14:35.895Z,360
2022-10-05T02:16:37.299Z,360
2022-10-05T02:18:39.207Z,360
2022-10-05T02:21:24.669Z,360
2022-10-05T02:23:26.261Z,360
2022-10-05T02:27:28.999Z,360
2022-10-05T02:29:30.528Z,360
2022-10-05T02:33:33.519Z,360
2022-10-05T02:37:36.897Z,360
2022-10-05T02:39:38.862Z,360
2022-10-05T02:43:42.411Z,360
2022-10-05T02:47:44.940Z,360
2022-10-05T02:49:45.974Z,360
2022-10-05T02:53:48.715Z,360
2022-10-05T02:55:50.526Z,360
2022-10-05T02:57:51.572Z,360
2022-10-05T02:59:53.566Z,360
2022-10-05T03:03:56.970Z,360
2022-10-05T03:05:58.827Z,360
2022-10-05T03:10:02.071Z,360
2022-10-05T03:12:03.234Z,360
2022-10-05T03:16:06.092Z,360
2022-10-05T03:20:08.817Z,360
2022-10-05T03:22:10.335Z,360
2022-10-05T03:26:13.666Z,360
2022-10-05T03:30:16.633Z,360
2022-10-05T03:32:17.796Z,360
2022-10-05T03:34:19.201Z,360
2022-10-05T03:36:20.168Z,360
2022-10-05T03:38:21.557Z,360
2022-10-05T03:40:23.063Z,360
2022-10-05T03:42:24.562Z,360
2022-10-05T03:44:25.789Z,360
2022-10-05T03:46:27.066Z,360
2022-10-05T03:48:28.317Z,360
2022-10-05T03:50:30.257Z,360
2022-10-05T03:52:32.096Z,360
2022-10-05T03:54:33.438Z,360
2022-10-05T03:58:36.231Z,360
2022-10-05T04:00:38.035Z,360
2022-10-05T04:02:39.551Z,360
2022-10-05T04:04:40.898Z,360
2022-10-05T04:08:47.598Z,360
2022-10-05T04:10:45.415Z,360
2022-10-05T04:12:46.538Z,360
2022-10-05T04:14:48.325Z,360
2022-10-05T04:18:51.060Z,360
2022-10-05T04:20:52.120Z,360
2022-10-05T04:22:53.848Z,360
2022-10-05T04:24:55.393Z,360
2022-10-05T04:26:56.622Z,360
2022-10-05T04:28:57.898Z,360
2022-10-05T04:30:59.494Z,360
2022-10-05T04:33:01.363Z,360
2022-10-05T04:35:02.550Z,360
2022-10-05T04:37:03.916Z,360
2022-10-05T04:41:06.070Z,360
2022-10-05T04:43:07.236Z,360
2022-10-05T04:45:08.789Z,360
2022-10-05T04:47:10.482Z,360
2022-10-05T04:51:13.451Z,360
2022-10-05T04:53:15.240Z,360
2022-10-05T04:55:17.179Z,360
2022-10-05T04:57:18.463Z,360
2022-10-05T05:01:21.232Z,360
2022-10-05T05:03:22.437Z,360
2022-10-05T05:05:23.664Z,360
2022-10-05T05:07:25.266Z,360
2022-10-05T05:11:27.500Z,360
2022-10-05T05:13:28.580Z,360
2022-10-05T05:17:31.155Z,360
2022-10-05T05:19:32.231Z,360
2022-10-05T05:23:34.660Z,360
2022-10-05T05:29:38.795Z,360
2022-10-05T05:31:40.654Z,360
2022-10-05T05:33:41.955Z,360
2022-10-05T05:35:43.817Z,360
2022-10-05T05:39:47.621Z,360
2022-10-05T05:43:50.161Z,360
2022-10-05T05:45:51.652Z,360
2022-10-05T05:49:54.450Z,360
2022-10-05T05:53:57.930Z,360
2022-10-05T05:55:59.796Z,360
2022-10-05T06:00:03.757Z,360
2022-10-05T06:02:05.704Z,360
2022-10-05T06:04:07.620Z,360
2022-10-05T06:06:09.583Z,360
2022-10-05T06:10:12.867Z,360
2022-10-05T06:12:14.436Z,360
2022-10-05T06:16:17.448Z,360
2022-10-05T06:18:19.035Z,360
2022-10-05T06:22:21.722Z,360
2022-10-05T06:26:24.790Z,360
2022-10-05T06:28:26.131Z,360
2022-10-05T06:32:29.018Z,360
2022-10-05T06:34:30.874Z,360
2022-10-05T06:38:33.517Z,360
2022-10-05T06:40:35.152Z,360
2022-10-05T06:42:37.030Z,360
2022-10-05T06:44:38.283Z,360
2022-10-05T06:46:39.777Z,360
2022-10-05T06:48:41.722Z,360
2022-10-05T06:50:43.465Z,360
2022-10-05T06:54:46.462Z,360
2022-10-05T06:56:48.175Z,360
2022-10-05T06:58:48.985Z,360
2022-10-05T07:00:50.644Z,360
2022-10-05T07:02:52.482Z,360
2022-10-05T07:06:55.732Z,360
2022-10-05T07:08:56.712Z,360
2022-10-05T07:10:57.628Z,360
2022-10-05T07:12:58.590Z,360
2022-10-05T07:17:01.863Z,360
2022-10-05T07:19:03.296Z,360
2022-10-05T07:21:04.604Z,360
2022-10-05T07:23:06.325Z,16
2022-10-05T07:25:07.734Z,16
2022-10-05T07:29:11.513Z,16
2022-10-05T07:31:12.954Z,16
2022-10-05T07:35:16.405Z,16
2022-10-05T07:39:20.087Z,16
2022-10-05T07:41:21.186Z,16
2022-10-05T07:43:22.185Z,16
2022-10-05T07:49:27.454Z,16
2022-10-05T07:51:30.133Z,16
2022-10-05T07:55:32.811Z,16
2022-10-05T07:57:34.683Z,16
2022-10-05T07:59:35.609Z,16
2022-10-05T08:01:36.881Z,16
2022-10-05T08:03:37.779Z,16
2022-10-05T08:05:39.238Z,16
2022-10-05T08:09:41.852Z,16
2022-10-05T08:11:42.930Z,16
2022-10-05T08:13:44.110Z,16
2022-10-05T08:15:45.207Z,16
2022-10-05T08:17:46.212Z,15
2022-10-05T08:19:47.625Z,16
2022-10-05T08:21:48.910Z,15
2022-10-05T08:23:50.282Z,15
2022-10-05T08:27:53.340Z,16
2022-10-05T08:29:54.306Z,15
2022-10-05T08:31:55.590Z,15
2022-10-05T08:33:56.913Z,15
2022-10-05T08:35:59.003Z,15
2022-10-05T08:38:00.212Z,15
2022-10-05T08:40:01.384Z,15
2022-10-05T08:42:03.032Z,15
2022-10-05T08:50:07.943Z,15
2022-10-05T08:52:09.193Z,15
2022-10-05T08:54:10.265Z,15
2022-10-05T08:56:14.358Z,274
2022-10-05T08:58:13.509Z,274
2022-10-05T09:00:14.640Z,175
2022-10-05T09:02:17.113Z,208
2022-10-05T09:05:28.285Z,200
2022-10-05T09:07:29.724Z,201
2022-10-05T09:09:31.008Z,157
2022-10-05T09:11:31.872Z,158
2022-10-05T09:15:33.746Z,177
2022-10-05T09:17:39.187Z,176
2022-10-05T09:21:37.324Z,213
2022-10-05T09:25:40.030Z,183
2022-10-05T09:27:41.269Z,207
2022-10-05T09:29:42.479Z,219
2022-10-05T09:33:45.661Z,189
2022-10-05T09:35:46.870Z,235
2022-10-05T09:41:50.386Z,198
2022-10-05T09:43:51.710Z,199
2022-10-05T09:45:53.010Z,200
2022-10-05T09:47:54.749Z,215
2022-10-05T09:49:56.418Z,220
2022-10-05T09:51:58.083Z,220
2022-10-05T09:53:59.031Z,162
2022-10-05T09:56:00.343Z,212
2022-10-05T09:58:01.368Z,189
2022-10-05T10:00:03.247Z,243
2022-10-05T10:04:06.208Z,171
2022-10-05T10:06:07.366Z,180
2022-10-05T10:10:09.657Z,159
2022-10-05T10:12:11.122Z,197
2022-10-05T10:14:11.936Z,171
2022-10-05T10:16:13.117Z,166
2022-10-05T10:20:15.618Z,199
2022-10-05T10:24:18.764Z,161
2022-10-05T10:26:20.209Z,234
2022-10-05T10:28:21.427Z,290
2022-10-05T10:30:23.195Z,237
2022-10-05T10:36:26.269Z,151
2022-10-05T10:38:28.009Z,175
2022-10-05T10:40:29.016Z,163
2022-10-05T10:42:30.408Z,167
2022-10-05T10:46:33.402Z,215
2022-10-05T10:48:34.171Z,190
2022-10-05T10:50:35.057Z,226
2022-10-05T10:52:36.231Z,291
2022-10-05T10:56:39.422Z,186
2022-10-05T10:58:41.089Z,182
2022-10-05T11:02:43.094Z,203
2022-10-05T11:04:44.601Z,202
2022-10-05T11:06:45.816Z,206
2022-10-05T11:08:55.393Z,223
2022-10-05T11:12:49.176Z,215
2022-10-05T11:14:50.037Z,255
2022-10-05T11:16:51.926Z,186
2022-10-05T11:18:53.465Z,227
2022-10-05T11:20:54.947Z,156
2022-10-05T11:22:55.829Z,247
2022-10-05T11:24:57.114Z,220
2022-10-05T11:26:58.434Z,254
2022-10-05T11:29:00.246Z,221
2022-10-05T11:31:01.744Z,212
2022-10-05T11:33:03.434Z,222
2022-10-05T11:35:04.352Z,257
2022-10-05T11:37:05.239Z,168
2022-10-05T11:39:06.234Z,196
2022-10-05T11:41:07.370Z,182
2022-10-05T11:45:10.072Z,179
2022-10-05T11:47:11.865Z,234
2022-10-05T11:51:14.977Z,227
2022-10-05T11:55:17.225Z,189
2022-10-05T11:57:18.892Z,184
2022-10-05T11:59:19.827Z,206
2022-10-05T12:01:21.145Z,218
2022-10-05T12:03:22.541Z,188
2022-10-05T12:05:23.920Z,269
2022-10-05T12:07:25.154Z,218
2022-10-05T12:09:26.889Z,235
2022-10-05T12:11:27.919Z,234
2022-10-05T12:13:29.318Z,180
2022-10-05T12:15:30.561Z,221
2022-10-05T12:17:31.557Z,230
2022-10-05T12:19:32.442Z,229
2022-10-05T12:21:33.510Z,240
2022-10-05T12:23:34.901Z,239
2022-10-05T12:25:36.234Z,186
2022-10-05T12:27:37.301Z,157
2022-10-05T12:29:38.770Z,255
2022-10-05T12:31:39.729Z,206
2022-10-05T12:33:40.960Z,217
2022-10-05T12:35:48.150Z,235
2022-10-05T12:37:44.172Z,191
2022-10-05T12:39:46.498Z,241
2022-10-05T12:43:48.821Z,209
2022-10-05T12:45:50.903Z,257
2022-10-05T12:47:53.852Z,206
2022-10-05T12:49:53.473Z,253
2022-10-05T12:51:54.457Z,206
2022-10-05T12:53:56.086Z,192
2022-10-05T12:55:57.339Z,160
2022-10-05T12:57:58.701Z,195
2022-10-05T12:59:59.754Z,188
2022-10-05T13:02:00.899Z,230
2022-10-05T13:04:02.003Z,171
2022-10-05T13:06:02.999Z,179
2022-10-05T13:08:04.659Z,231
2022-10-05T13:10:05.624Z,237
2022-10-05T13:16:10.405Z,260
2022-10-05T13:18:11.930Z,246
2022-10-05T13:20:12.967Z,227
2022-10-05T13:22:14.628Z,257
2022-10-05T13:26:17.674Z,236
2022-10-05T13:30:20.682Z,273
2022-10-05T13:32:21.794Z,254
2022-10-05T13:36:23.884Z,214
2022-10-05T13:38:24.770Z,157
2022-10-05T13:40:25.803Z,199
2022-10-05T13:42:27.016Z,235
2022-10-05T13:44:27.979Z,189
2022-10-05T13:46:29.249Z,228
2022-10-05T13:48:30.004Z,221
2022-10-05T13:50:32.789Z,209
2022-10-05T13:52:32.245Z,228
2022-10-05T13:54:32.979Z,285
2022-10-05T13:56:33.931Z,302
2022-10-05T13:58:35.512Z,250
2022-10-05T14:00:37.123Z,272
2022-10-05T14:02:38.361Z,234
2022-10-05T14:04:39.379Z,217
2022-10-05T14:08:42.056Z,285
2022-10-05T14:10:43.252Z,230
2022-10-05T14:12:44.233Z,229
2022-10-05T14:14:45.912Z,248
2022-10-05T14:18:48.519Z,205
2022-10-05T14:20:49.552Z,172
2022-10-05T14:24:51.930Z,179
2022-10-05T14:28:54.578Z,209
2022-10-05T14:30:58.859Z,221
2022-10-05T14:34:58.655Z,165
2022-10-05T14:39:01.452Z,218
2022-10-05T14:41:03.180Z,237
2022-10-05T14:45:05.646Z,220
2022-10-05T14:47:06.868Z,214
2022-10-05T14:49:07.929Z,205
2022-10-05T14:51:08.915Z,239
2022-10-05T14:57:13.053Z,173
2022-10-05T14:59:14.260Z,174
2022-10-05T15:01:15.106Z,195
2022-10-05T15:03:16.662Z,196
2022-10-05T15:07:19.618Z,214
2022-10-05T15:09:20.415Z,159
2022-10-05T15:11:21.859Z,260
2022-10-05T15:13:23.133Z,228
2022-10-05T15:17:25.718Z,213
2022-10-05T15:19:26.554Z,274
2022-10-05T15:21:28.202Z,198
2022-10-05T15:23:29.667Z,265
2022-10-05T15:25:31.128Z,249
2022-10-05T15:27:32.358Z,232
2022-10-05T15:29:33.289Z,232
2022-10-05T15:31:34.982Z,232
2022-10-05T15:33:36.342Z,217
2022-10-05T15:39:39.983Z,245
2022-10-05T15:41:41.599Z,239
2022-10-05T15:43:43.084Z,250
2022-10-05T15:45:44.528Z,251
2022-10-05T15:49:47.750Z,261
2022-10-05T15:50:31.427Z,236
2022-10-05T15:52:32.473Z,233
2022-10-05T15:54:33.457Z,233
2022-10-05T15:56:35.087Z,233
2022-10-05T16:00:37.698Z,166
2022-10-05T16:04:40.036Z,249
2022-10-05T16:06:40.920Z,248
2022-10-05T16:10:42.772Z,279
2022-10-05T16:14:45.782Z,255
2022-10-05T16:16:47.394Z,232
2022-10-05T16:20:49.986Z,244
2022-10-05T16:22:51.281Z,263
2022-10-05T16:24:52.956Z,248
2022-10-05T16:26:54.018Z,279
2022-10-05T16:32:58.008Z,231
2022-10-05T16:34:59.004Z,256
2022-10-05T16:37:00.121Z,256
2022-10-05T16:39:01.607Z,256
2022-10-05T16:43:04.306Z,256
2022-10-05T16:45:05.398Z,256
2022-10-05T16:49:07.765Z,44
2022-10-05T16:53:10.507Z,44
2022-10-05T16:55:11.914Z,44
2022-10-05T16:57:13.332Z,43
2022-10-05T16:59:14.843Z,43
2022-10-05T17:01:15.966Z,43
2022-10-05T17:03:17.147Z,43
2022-10-05T17:05:18.350Z,43
2022-10-05T17:07:19.502Z,1
2022-10-05T17:09:20.767Z,3
2022-10-05T17:11:22.463Z,3
2022-10-05T17:15:25.352Z,3
2022-10-05T17:17:27.133Z,3
2022-10-05T17:19:28.837Z,3
2022-10-05T17:21:30.536Z,3
2022-10-05T17:23:31.803Z,99
2022-10-05T17:25:33.406Z,98
2022-10-05T17:27:34.661Z,98
2022-10-05T17:31:37.765Z,98
2022-10-05T17:35:40.265Z,266
2022-10-05T17:37:41.474Z,266
2022-10-05T17:39:42.473Z,266
2022-10-05T17:41:44.034Z,266
2022-10-05T17:45:47.358Z,266
2022-10-05T17:47:48.472Z,266
2022-10-05T17:49:50.165Z,266
2022-10-05T17:53:52.842Z,266
2022-10-05T17:55:54.518Z,266
2022-10-05T17:57:55.971Z,266
2022-10-05T17:59:57.742Z,266
2022-10-05T18:01:58.915Z,266
2022-10-05T18:04:00.429Z,266
2022-10-05T18:08:03.516Z,266
2022-10-05T18:10:05.186Z,266
2022-10-05T18:12:06.664Z,266
2022-10-05T18:14:07.892Z,266
2022-10-05T18:18:10.597Z,272
2022-10-05T18:20:11.902Z,272
2022-10-05T18:22:13.347Z,270
2022-10-05T18:24:14.270Z,270
2022-10-05T18:28:17.445Z,270
2022-10-05T18:30:18.438Z,270
2022-10-05T18:34:20.828Z,270
2022-10-05T18:38:24.067Z,270
2022-10-05T18:40:25.678Z,270
2022-10-05T18:44:28.433Z,270
2022-10-05T18:46:29.754Z,270
2022-10-05T18:48:31.278Z,270
2022-10-05T18:50:32.317Z,270
2022-10-05T18:52:33.778Z,270
2022-10-05T18:54:35.478Z,270
2022-10-05T18:56:36.686Z,270
2022-10-05T18:58:37.906Z,270
2022-10-05T19:00:39.214Z,270
2022-10-05T19:02:40.999Z,270
2022-10-05T19:06:43.530Z,270
2022-10-05T19:08:45.387Z,270
2022-10-05T19:10:47.157Z,270
2022-10-05T19:12:48.191Z,270
2022-10-05T19:16:51.762Z,270
2022-10-05T19:18:53.346Z,270
2022-10-05T19:20:54.977Z,270
2022-10-05T19:22:56.817Z,270
2022-10-05T19:24:58.657Z,270
2022-10-05T19:26:59.647Z,270
2022-10-05T19:29:01.281Z,270
2022-10-05T19:31:02.890Z,270
2022-10-05T19:33:04.098Z,270
2022-10-05T19:35:05.255Z,270
2022-10-05T19:37:06.854Z,312
2022-10-05T19:39:08.722Z,312
2022-10-05T19:41:10.330Z,312
2022-10-05T19:43:12.108Z,312
2022-10-05T19:45:13.484Z,312
2022-10-05T19:49:16.284Z,312
2022-10-05T19:51:17.308Z,312
2022-10-05T19:55:19.529Z,312
2022-10-05T19:59:22.120Z,312
2022-10-05T20:01:23.448Z,312
2022-10-05T20:03:24.941Z,312
2022-10-05T20:05:26.775Z,312
2022-10-05T20:09:30.429Z,312
2022-10-05T20:11:31.500Z,312
2022-10-05T20:13:33.223Z,312
2022-10-05T20:15:34.093Z,312
2022-10-05T20:19:37.599Z,312
2022-10-05T20:21:39.062Z,312
2022-10-05T20:23:40.874Z,312
2022-10-05T20:25:42.198Z,312
2022-10-05T20:27:44.038Z,312
2022-10-05T20:29:45.514Z,312
2022-10-05T20:31:46.667Z,312
2022-10-05T20:33:48.029Z,312
2022-10-05T20:35:48.999Z,312
2022-10-05T20:37:50.734Z,312
2022-10-05T20:41:53.476Z,312
2022-10-05T20:43:55.979Z,312
2022-10-05T20:47:58.970Z,312
2022-10-05T20:49:59.940Z,312
2022-10-05T20:52:01.558Z,312
2022-10-05T20:54:02.995Z,312
2022-10-05T20:56:04.049Z,312
2022-10-05T20:58:05.530Z,312
2022-10-05T21:02:07.960Z,312
2022-10-05T21:04:08.836Z,312
2022-10-05T21:08:12.418Z,312
2022-10-05T21:10:13.539Z,312
2022-10-05T21:12:15.295Z,312
2022-10-05T21:14:17.137Z,312
2022-10-05T21:16:18.783Z,312
2022-10-05T21:20:22.099Z,312
2022-10-05T21:22:23.361Z,312
2022-10-05T21:24:24.457Z,312
2022-10-05T21:26:25.991Z,312
2022-10-05T21:30:28.442Z,312
2022-10-05T21:32:30.179Z,313
2022-10-05T21:34:31.182Z,313
2022-10-05T21:36:32.334Z,312
2022-10-05T21:40:35.265Z,312
2022-10-05T21:42:36.974Z,312
2022-10-05T21:44:38.337Z,312
2022-10-05T21:46:39.904Z,312
2022-10-05T21:48:41.077Z,312
2022-10-05T21:50:42.816Z,312
2022-10-05T21:52:44.640Z,312
2022-10-05T21:54:46.336Z,312
2022-10-05T21:56:47.612Z,312
2022-10-05T21:58:48.639Z,312
2022-10-05T22:00:50.348Z,312
2022-10-05T22:02:51.412Z,312
2022-10-05T22:04:52.651Z,312
2022-10-05T22:06:54.077Z,312
2022-10-05T22:08:55.701Z,312
2022-10-05T22:12:58.606Z,312
2022-10-05T22:14:59.879Z,312
2022-10-05T22:19:02.797Z,312
2022-10-05T22:23:05.530Z,312
2022-10-05T22:25:06.413Z,312
2022-10-05T22:27:07.648Z,312
2022-10-05T22:29:09.127Z,312
2022-10-05T22:31:10.846Z,312
2022-10-05T22:33:12.682Z,312
2022-10-05T22:35:13.637Z,312
2022-10-05T22:37:58.949Z,312
2022-10-05T22:39:59.901Z,312
2022-10-05T22:42:01.512Z,312
2022-10-05T22:44:03.215Z,312
2022-10-05T22:46:04.325Z,312
2022-10-05T22:48:05.927Z,312
2022-10-05T22:50:07.147Z,312
2022-10-05T22:52:08.102Z,312
2022-10-05T22:54:09.698Z,312
2022-10-05T22:56:10.942Z,313
2022-10-05T23:00:13.506Z,313
2022-10-05T23:02:14.781Z,312
2022-10-05T23:06:17.905Z,312
2022-10-05T23:08:19.533Z,313
2022-10-05T23:12:22.615Z,313
2022-10-05T23:16:25.395Z,313
2022-10-05T23:20:27.771Z,313
2022-10-05T23:22:29.544Z,313
2022-10-05T23:26:31.663Z,313
2022-10-05T23:28:33.861Z,313
2022-10-05T23:30:34.478Z,313
2022-10-05T23:32:35.676Z,313
2022-10-05T23:38:41.198Z,313
2022-10-05T23:40:42.426Z,313
2022-10-05T23:44:45.339Z,313
2022-10-05T23:46:46.455Z,313
2022-10-05T23:48:48.227Z,313
2022-10-05T23:50:49.912Z,313
2022-10-05T23:52:51.121Z,313
2022-10-05T23:54:52.510Z,313
2022-10-05T23:58:55.462Z,313
